createdAt,value
2018-05-01T00:00:07.896Z,0.00
2018-05-01T00:01:07.931Z,0.00
2018-05-01T00:02:07.965Z,0.00
2018-05-01T00:05:10.948Z,0.00
2018-05-01T00:05:51.775Z,0.00
2018-05-01T00:06:51.811Z,0.00
2018-05-01T00:07:51.860Z,0.00
2018-05-01T00:08:51.879Z,0.00
2018-05-01T00:09:51.918Z,0.00
2018-05-01T00:10:51.946Z,0.00
2018-05-01T00:11:51.984Z,0.00
2018-05-01T00:12:52.012Z,0.00
2018-05-01T00:13:52.046Z,0.00
2018-05-01T00:14:52.081Z,0.00
2018-05-01T00:15:52.173Z,0.00
2018-05-01T00:16:52.231Z,0.00
2018-05-01T00:17:52.253Z,0.00
2018-05-01T00:18:52.228Z,0.00
2018-05-01T00:19:52.311Z,0.00
2018-05-01T00:20:52.435Z,0.00
2018-05-01T00:21:52.453Z,0.00
2018-05-01T00:22:52.450Z,0.00
2018-05-01T00:23:52.511Z,0.00
2018-05-01T00:24:52.430Z,0.00
2018-05-01T00:25:52.535Z,0.00
2018-05-01T00:26:52.592Z,0.00
2018-05-01T00:27:52.586Z,0.00
2018-05-01T00:28:52.633Z,0.00
2018-05-01T00:29:52.596Z,0.00
2018-05-01T00:30:52.716Z,0.00
2018-05-01T00:31:52.870Z,0.00
2018-05-01T00:32:52.798Z,0.00
2018-05-01T00:33:52.814Z,0.00
2018-05-01T00:34:52.854Z,0.00
2018-05-01T00:35:52.884Z,0.00
2018-05-01T00:36:52.954Z,0.00
2018-05-01T00:37:52.913Z,0.00
2018-05-01T00:38:52.900Z,0.00
2018-05-01T00:39:52.943Z,0.00
2018-05-01T00:40:53.067Z,0.00
2018-05-01T00:41:53.132Z,0.00
2018-05-01T00:42:53.138Z,0.00
2018-05-01T00:43:53.173Z,0.00
2018-05-01T00:44:53.199Z,0.00
2018-05-01T00:45:53.229Z,0.00
2018-05-01T00:46:53.195Z,0.00
2018-05-01T00:47:53.206Z,0.00
2018-05-01T00:48:53.242Z,0.00
2018-05-01T00:49:53.273Z,0.00
2018-05-01T00:50:53.308Z,0.00
2018-05-01T00:51:53.342Z,0.00
2018-05-01T00:52:53.375Z,0.00
2018-05-01T00:53:53.409Z,0.00
2018-05-01T00:54:53.444Z,0.00
2018-05-01T00:55:53.479Z,0.00
2018-05-01T00:56:53.514Z,0.00
2018-05-01T00:57:53.547Z,0.00
2018-05-01T00:58:53.581Z,0.00
2018-05-01T00:59:53.617Z,0.00
2018-05-01T01:00:53.648Z,0.00
2018-05-01T01:01:53.682Z,0.00
2018-05-01T01:02:53.716Z,0.00
2018-05-01T01:03:53.750Z,0.00
2018-05-01T01:04:53.785Z,0.00
2018-05-01T01:05:53.818Z,0.00
2018-05-01T01:06:53.853Z,0.00
2018-05-01T01:07:53.885Z,0.00
2018-05-01T01:08:53.920Z,0.00
2018-05-01T01:09:53.956Z,0.00
2018-05-01T01:10:53.989Z,0.00
2018-05-01T01:11:54.021Z,0.00
2018-05-01T01:12:54.055Z,0.00
2018-05-01T01:13:54.091Z,0.00
2018-05-01T01:14:54.125Z,0.00
2018-05-01T01:15:54.157Z,0.00
2018-05-01T01:16:54.192Z,0.00
2018-05-01T01:17:54.225Z,0.00
2018-05-01T01:18:54.259Z,0.00
2018-05-01T01:19:54.293Z,0.00
2018-05-01T01:20:54.328Z,0.00
2018-05-01T01:21:54.361Z,0.00
2018-05-01T01:22:54.395Z,0.00
2018-05-01T01:23:54.427Z,0.00
2018-05-01T01:24:54.464Z,0.00
2018-05-01T01:25:54.495Z,0.00
2018-05-01T01:26:54.531Z,0.00
2018-05-01T01:27:54.564Z,0.00
2018-05-01T01:28:54.598Z,0.00
2018-05-01T01:29:54.631Z,0.00
2018-05-01T01:30:54.674Z,0.00
2018-05-01T01:31:54.707Z,0.00
2018-05-01T01:32:54.731Z,0.00
2018-05-01T01:33:54.766Z,0.00
2018-05-01T01:34:54.807Z,0.00
2018-05-01T01:35:54.834Z,0.00
2018-05-01T01:36:54.876Z,0.00
2018-05-01T01:37:54.901Z,0.00
2018-05-01T01:38:54.935Z,0.00
2018-05-01T01:39:54.967Z,0.00
2018-05-01T01:40:55.003Z,0.00
2018-05-01T01:41:55.036Z,0.00
2018-05-01T01:42:55.070Z,0.00
2018-05-01T01:43:55.103Z,0.00
2018-05-01T01:44:55.137Z,0.00
2018-05-01T01:45:55.172Z,0.00
2018-05-01T01:46:55.205Z,0.00
2018-05-01T01:47:55.246Z,0.00
2018-05-01T01:48:55.277Z,0.00
2018-05-01T01:49:55.305Z,0.00
2018-05-01T01:50:55.345Z,0.00
2018-05-01T01:51:55.373Z,0.00
2018-05-01T01:52:55.406Z,0.00
2018-05-01T01:53:55.438Z,0.00
2018-05-01T01:54:55.477Z,0.00
2018-05-01T01:55:55.513Z,0.00
2018-05-01T01:56:55.540Z,0.00
2018-05-01T01:57:55.571Z,0.00
2018-05-01T01:58:55.607Z,0.00
2018-05-01T01:59:55.648Z,0.00
2018-05-01T02:00:55.673Z,0.00
2018-05-01T02:01:55.706Z,0.00
2018-05-01T02:02:55.741Z,0.00
2018-05-01T02:03:55.771Z,0.00
2018-05-01T02:04:55.805Z,0.00
2018-05-01T02:05:55.840Z,0.00
2018-05-01T02:06:55.872Z,0.00
2018-05-01T02:07:55.906Z,0.00
2018-05-01T02:08:55.937Z,0.00
2018-05-01T02:09:55.971Z,0.00
2018-05-01T02:10:56.005Z,0.00
2018-05-01T02:11:56.038Z,0.00
2018-05-01T02:12:56.072Z,0.00
2018-05-01T02:13:56.103Z,0.00
2018-05-01T02:14:56.137Z,0.00
2018-05-01T02:15:56.169Z,0.00
2018-05-01T02:16:56.202Z,0.00
2018-05-01T02:17:56.236Z,0.00
2018-05-01T02:18:56.269Z,0.00
2018-05-01T02:19:56.310Z,0.00
2018-05-01T02:20:56.334Z,0.00
2018-05-01T02:21:56.368Z,0.00
2018-05-01T02:22:56.402Z,0.00
2018-05-01T02:23:56.433Z,0.00
2018-05-01T02:24:56.467Z,0.00
2018-05-01T02:25:56.502Z,0.00
2018-05-01T02:26:56.535Z,0.00
2018-05-01T02:27:56.566Z,0.00
2018-05-01T02:28:56.600Z,0.00
2018-05-01T02:29:56.633Z,0.00
2018-05-01T02:30:56.678Z,0.00
2018-05-01T02:31:56.699Z,0.00
2018-05-01T02:32:56.739Z,0.00
2018-05-01T02:33:56.771Z,0.00
2018-05-01T02:34:56.799Z,0.00
2018-05-01T02:35:56.837Z,0.00
2018-05-01T02:36:56.869Z,0.00
2018-05-01T02:37:56.895Z,0.00
2018-05-01T02:38:56.933Z,0.00
2018-05-01T02:39:56.963Z,0.00
2018-05-01T02:40:56.998Z,0.00
2018-05-01T02:41:57.029Z,0.00
2018-05-01T02:42:57.062Z,0.00
2018-05-01T02:43:57.098Z,0.00
2018-05-01T02:44:57.129Z,0.00
2018-05-01T02:45:57.160Z,0.00
2018-05-01T02:46:57.193Z,0.00
2018-05-01T02:47:57.229Z,0.00
2018-05-01T02:48:57.267Z,0.00
2018-05-01T02:49:57.292Z,0.00
2018-05-01T02:50:57.325Z,0.00
2018-05-01T02:51:57.367Z,0.00
2018-05-01T02:52:57.394Z,0.00
2018-05-01T02:53:57.424Z,0.00
2018-05-01T02:54:57.461Z,0.00
2018-05-01T02:55:57.490Z,0.00
2018-05-01T02:56:57.523Z,0.00
2018-05-01T02:57:57.557Z,0.00
2018-05-01T02:58:57.589Z,0.00
2018-05-01T02:59:57.620Z,0.00
2018-05-01T03:00:57.655Z,0.00
2018-05-01T03:01:57.688Z,0.00
2018-05-01T03:02:57.729Z,0.00
2018-05-01T03:03:57.755Z,0.00
2018-05-01T03:04:57.793Z,0.00
2018-05-01T03:05:57.819Z,0.00
2018-05-01T03:06:57.863Z,0.00
2018-05-01T03:07:57.892Z,0.00
2018-05-01T03:08:57.920Z,0.00
2018-05-01T03:09:57.954Z,0.00
2018-05-01T03:10:57.987Z,0.00
2018-05-01T03:11:58.026Z,0.00
2018-05-01T03:12:58.054Z,0.00
2018-05-01T03:13:58.085Z,0.00
2018-05-01T03:14:58.122Z,0.00
2018-05-01T03:15:58.150Z,0.00
2018-05-01T03:16:58.185Z,0.00
2018-05-01T03:17:58.219Z,0.00
2018-05-01T03:18:58.250Z,0.00
2018-05-01T03:19:58.281Z,0.00
2018-05-01T03:20:58.315Z,0.00
2018-05-01T03:21:58.351Z,0.00
2018-05-01T03:22:58.387Z,0.00
2018-05-01T03:23:58.414Z,0.00
2018-05-01T03:24:58.448Z,0.00
2018-05-01T03:25:58.486Z,0.00
2018-05-01T03:26:58.516Z,4.00
2018-05-01T03:27:58.548Z,0.00
2018-05-01T03:28:58.582Z,4.00
2018-05-01T03:29:58.615Z,4.00
2018-05-01T03:30:58.656Z,4.00
2018-05-01T03:31:58.683Z,4.00
2018-05-01T03:32:58.714Z,4.00
2018-05-01T03:33:58.750Z,4.00
2018-05-01T03:34:58.785Z,8.00
2018-05-01T03:35:58.814Z,4.00
2018-05-01T03:36:58.849Z,8.00
2018-05-01T03:37:58.881Z,12.00
2018-05-01T03:38:58.922Z,12.00
2018-05-01T03:39:58.949Z,12.00
2018-05-01T03:40:58.982Z,16.00
2018-05-01T03:41:59.017Z,12.00
2018-05-01T03:42:59.050Z,16.00
2018-05-01T03:43:59.080Z,20.00
2018-05-01T03:44:59.113Z,20.00
2018-05-01T03:45:59.148Z,24.00
2018-05-01T03:46:59.183Z,24.00
2018-05-01T03:47:59.218Z,24.00
2018-05-01T03:48:59.248Z,32.00
2018-05-01T03:49:59.287Z,36.00
2018-05-01T03:50:59.314Z,32.00
2018-05-01T03:51:59.352Z,32.00
2018-05-01T03:52:59.381Z,36.00
2018-05-01T03:53:59.413Z,48.00
2018-05-01T03:54:59.447Z,52.00
2018-05-01T03:55:59.567Z,56.00
2018-05-01T03:56:59.511Z,64.00
2018-05-01T03:57:59.548Z,68.00
2018-05-01T03:58:59.580Z,68.00
2018-05-01T03:59:59.613Z,64.00
2018-05-01T04:00:59.647Z,72.00
2018-05-01T04:01:59.681Z,88.00
2018-05-01T04:02:59.717Z,84.00
2018-05-01T04:03:59.746Z,96.00
2018-05-01T04:04:59.784Z,100.00
2018-05-01T04:05:59.816Z,112.00
2018-05-01T04:06:59.848Z,108.00
2018-05-01T04:07:59.879Z,104.00
2018-05-01T04:08:59.913Z,116.00
2018-05-01T04:09:59.945Z,156.00
2018-05-01T04:10:59.981Z,164.00
2018-05-01T04:12:00.015Z,136.00
2018-05-01T04:13:00.050Z,152.00
2018-05-01T04:14:00.079Z,156.00
2018-05-01T04:15:00.123Z,148.00
2018-05-01T04:16:00.148Z,144.00
2018-05-01T04:17:00.177Z,140.00
2018-05-01T04:18:00.213Z,164.00
2018-05-01T04:19:00.249Z,168.00
2018-05-01T04:20:00.280Z,176.00
2018-05-01T04:21:00.311Z,188.00
2018-05-01T04:22:00.344Z,176.00
2018-05-01T04:23:00.379Z,172.00
2018-05-01T04:24:00.414Z,196.00
2018-05-01T04:25:00.443Z,232.00
2018-05-01T04:26:00.555Z,260.00
2018-05-01T04:27:00.511Z,320.00
2018-05-01T04:28:00.542Z,388.00
2018-05-01T04:29:00.576Z,396.00
2018-05-01T04:30:00.607Z,440.00
2018-05-01T04:31:00.643Z,480.00
2018-05-01T04:32:00.677Z,500.00
2018-05-01T04:33:00.708Z,652.00
2018-05-01T04:34:00.741Z,744.00
2018-05-01T04:35:00.779Z,788.00
2018-05-01T04:36:00.807Z,704.00
2018-05-01T04:37:00.842Z,620.00
2018-05-01T04:38:00.875Z,596.00
2018-05-01T04:39:01.436Z,704.00
2018-05-01T04:40:00.941Z,700.00
2018-05-01T04:41:00.973Z,628.00
2018-05-01T04:42:01.007Z,640.00
2018-05-01T04:43:01.048Z,664.00
2018-05-01T04:44:01.081Z,716.00
2018-05-01T04:45:01.105Z,752.00
2018-05-01T04:46:01.140Z,944.00
2018-05-01T04:47:01.174Z,1192.00
2018-05-01T04:48:01.206Z,1536.00
2018-05-01T04:49:01.240Z,2024.00
2018-05-01T04:50:01.272Z,1972.00
2018-05-01T04:51:01.306Z,1700.00
2018-05-01T04:52:01.338Z,1584.00
2018-05-01T04:53:01.372Z,1852.00
2018-05-01T04:54:01.405Z,2288.00
2018-05-01T04:55:01.440Z,2328.00
2018-05-01T04:56:01.473Z,2356.00
2018-05-01T04:57:01.504Z,2296.00
2018-05-01T04:58:01.539Z,2420.00
2018-05-01T04:59:01.575Z,2256.00
2018-05-01T05:00:01.604Z,2156.00
2018-05-01T05:01:01.639Z,2296.00
2018-05-01T05:02:01.671Z,2580.00
2018-05-01T05:03:01.707Z,2876.00
2018-05-01T05:04:01.740Z,3188.00
2018-05-01T05:05:01.769Z,3476.00
2018-05-01T05:06:01.802Z,3616.00
2018-05-01T05:07:01.835Z,3792.00
2018-05-01T05:08:01.868Z,3980.00
2018-05-01T05:09:01.901Z,4232.00
2018-05-01T05:10:01.939Z,4708.00
2018-05-01T05:11:01.968Z,4804.00
2018-05-01T05:12:02.000Z,4528.00
2018-05-01T05:13:02.037Z,4820.00
2018-05-01T05:14:02.068Z,4520.00
2018-05-01T05:15:02.105Z,4384.00
2018-05-01T05:16:02.139Z,4024.00
2018-05-01T05:17:02.169Z,4096.00
2018-05-01T05:18:02.201Z,4768.00
2018-05-01T05:19:02.233Z,5288.00
2018-05-01T05:20:02.267Z,4360.00
2018-05-01T05:21:02.299Z,4888.00
2018-05-01T05:22:02.331Z,4720.00
2018-05-01T05:23:02.365Z,4720.00
2018-05-01T05:24:02.398Z,6088.00
2018-05-01T05:25:02.432Z,5800.00
2018-05-01T05:26:02.465Z,5532.00
2018-05-01T05:27:02.505Z,4956.00
2018-05-01T05:28:02.532Z,4236.00
2018-05-01T05:29:02.565Z,3924.00
2018-05-01T05:30:02.599Z,3476.00
2018-05-01T05:31:02.704Z,3788.00
2018-05-01T05:32:02.664Z,3840.00
2018-05-01T05:33:02.708Z,4156.00
2018-05-01T05:34:02.732Z,3548.00
2018-05-01T05:35:02.764Z,3584.00
2018-05-01T05:36:02.798Z,3596.00
2018-05-01T05:37:02.831Z,4020.00
2018-05-01T05:38:02.863Z,4032.00
2018-05-01T05:39:02.896Z,4776.00
2018-05-01T05:40:02.928Z,4468.00
2018-05-01T05:41:02.963Z,4192.00
2018-05-01T05:42:02.995Z,4188.00
2018-05-01T05:43:03.029Z,3476.00
2018-05-01T05:44:03.061Z,4108.00
2018-05-01T05:45:03.095Z,4328.00
2018-05-01T05:46:03.129Z,4444.00
2018-05-01T05:47:03.162Z,5800.00
2018-05-01T05:48:03.195Z,5216.00
2018-05-01T05:49:03.228Z,4844.00
2018-05-01T05:50:03.263Z,4580.00
2018-05-01T05:51:03.295Z,5296.00
2018-05-01T05:52:03.330Z,4492.00
2018-05-01T05:53:03.361Z,4040.00
2018-05-01T05:54:03.394Z,3824.00
2018-05-01T05:55:03.429Z,4404.00
2018-05-01T05:56:03.460Z,5024.00
2018-05-01T05:57:03.514Z,4232.00
2018-05-01T05:58:03.536Z,4508.00
2018-05-01T05:59:03.561Z,4176.00
2018-05-01T06:00:03.594Z,3836.00
2018-05-01T06:01:03.630Z,3752.00
2018-05-01T06:02:03.660Z,3356.00
2018-05-01T06:03:03.696Z,3400.00
2018-05-01T06:04:03.729Z,3400.00
2018-05-01T06:05:03.761Z,3420.00
2018-05-01T06:06:03.796Z,4140.00
2018-05-01T06:07:04.345Z,5192.00
2018-05-01T06:08:03.863Z,6180.00
2018-05-01T06:09:03.898Z,6704.00
2018-05-01T06:10:03.930Z,6580.00
2018-05-01T06:11:03.963Z,6532.00
2018-05-01T06:12:03.997Z,7416.00
2018-05-01T06:13:04.033Z,6692.00
2018-05-01T06:14:04.066Z,7872.00
2018-05-01T06:15:04.096Z,7048.00
2018-05-01T06:16:04.130Z,7404.00
2018-05-01T06:17:04.165Z,7800.00
2018-05-01T06:18:04.197Z,7284.00
2018-05-01T06:19:04.316Z,8148.00
2018-05-01T06:20:04.273Z,8188.00
2018-05-01T06:21:04.299Z,7196.00
2018-05-01T06:22:04.449Z,8420.00
2018-05-01T06:23:04.368Z,8816.00
2018-05-01T06:24:04.399Z,6512.00
2018-05-01T06:25:04.435Z,6116.00
2018-05-01T06:26:04.469Z,6736.00
2018-05-01T06:27:04.504Z,6104.00
2018-05-01T06:28:04.537Z,6636.00
2018-05-01T06:29:04.569Z,7856.00
2018-05-01T06:30:04.603Z,8164.00
2018-05-01T06:31:04.711Z,9804.00
2018-05-01T06:32:04.677Z,11716.00
2018-05-01T06:33:04.705Z,10932.00
2018-05-01T06:34:04.744Z,9128.00
2018-05-01T06:35:04.775Z,8176.00
2018-05-01T06:36:04.846Z,8280.00
2018-05-01T06:37:04.841Z,10952.00
2018-05-01T06:38:04.880Z,11240.00
2018-05-01T06:39:04.927Z,9500.00
2018-05-01T06:40:04.943Z,8540.00
2018-05-01T06:41:04.984Z,8908.00
2018-05-01T06:42:05.014Z,10440.00
2018-05-01T06:43:05.050Z,9412.00
2018-05-01T06:44:05.082Z,7584.00
2018-05-01T06:45:05.116Z,9644.00
2018-05-01T06:46:05.151Z,10008.00
2018-05-01T06:47:05.197Z,11552.00
2018-05-01T06:48:05.225Z,11616.00
2018-05-01T06:49:05.256Z,9308.00
2018-05-01T06:50:05.321Z,8276.00
2018-05-01T06:51:05.330Z,10056.00
2018-05-01T06:52:05.355Z,8796.00
2018-05-01T06:53:05.393Z,9528.00
2018-05-01T06:54:05.424Z,7720.00
2018-05-01T06:55:05.465Z,10824.00
2018-05-01T06:56:05.495Z,11456.00
2018-05-01T06:57:05.539Z,9148.00
2018-05-01T06:58:05.568Z,7112.00
2018-05-01T06:59:05.596Z,8208.00
2018-05-01T07:00:05.632Z,8060.00
2018-05-01T07:01:05.668Z,8660.00
2018-05-01T07:02:05.701Z,8660.00
2018-05-01T07:03:05.769Z,7992.00
2018-05-01T07:04:05.774Z,11120.00
2018-05-01T07:05:05.805Z,12776.00
2018-05-01T07:06:05.844Z,11052.00
2018-05-01T07:07:05.898Z,10204.00
2018-05-01T07:08:05.909Z,11936.00
2018-05-01T07:09:05.943Z,11856.00
2018-05-01T07:10:05.999Z,7844.00
2018-05-01T07:11:06.016Z,7548.00
2018-05-01T07:12:06.048Z,7708.00
2018-05-01T07:13:06.085Z,7804.00
2018-05-01T07:14:06.119Z,8380.00
2018-05-01T07:15:06.155Z,11596.00
2018-05-01T07:16:06.189Z,10672.00
2018-05-01T07:17:06.233Z,9572.00
2018-05-01T07:18:06.261Z,8088.00
2018-05-01T07:19:06.300Z,7792.00
2018-05-01T07:20:06.328Z,10252.00
2018-05-01T07:21:06.432Z,12080.00
2018-05-01T07:22:06.401Z,12136.00
2018-05-01T07:23:06.436Z,11412.00
2018-05-01T07:24:06.467Z,11092.00
2018-05-01T07:25:06.507Z,8080.00
2018-05-01T07:26:06.538Z,6656.00
2018-05-01T07:27:06.576Z,7936.00
2018-05-01T07:28:06.611Z,9028.00
2018-05-01T07:29:06.653Z,8432.00
2018-05-01T07:30:06.683Z,7116.00
2018-05-01T07:31:06.724Z,6992.00
2018-05-01T07:32:06.746Z,7620.00
2018-05-01T07:33:06.786Z,7776.00
2018-05-01T07:34:06.826Z,7900.00
2018-05-01T07:35:06.853Z,7496.00
2018-05-01T07:36:06.890Z,7444.00
2018-05-01T07:37:06.923Z,7780.00
2018-05-01T07:38:06.958Z,6784.00
2018-05-01T07:39:07.004Z,6060.00
2018-05-01T07:40:07.077Z,6444.00
2018-05-01T07:41:07.064Z,7400.00
2018-05-01T07:42:07.098Z,6932.00
2018-05-01T07:43:07.133Z,6668.00
2018-05-01T07:44:07.170Z,7868.00
2018-05-01T07:45:07.258Z,7576.00
2018-05-01T07:46:07.297Z,6952.00
2018-05-01T07:47:07.272Z,6696.00
2018-05-01T07:48:07.309Z,7016.00
2018-05-01T07:49:07.351Z,8012.00
2018-05-01T07:50:07.397Z,9652.00
2018-05-01T07:51:07.418Z,9524.00
2018-05-01T07:52:07.446Z,8224.00
2018-05-01T07:53:07.488Z,7760.00
2018-05-01T07:54:07.536Z,7492.00
2018-05-01T07:55:07.620Z,7984.00
2018-05-01T07:56:07.594Z,9456.00
2018-05-01T07:57:07.629Z,11828.00
2018-05-01T07:58:07.657Z,12720.00
2018-05-01T07:59:07.705Z,12188.00
2018-05-01T08:00:07.727Z,12076.00
2018-05-01T08:01:07.767Z,11152.00
2018-05-01T08:02:07.796Z,10176.00
2018-05-01T08:03:07.831Z,9068.00
2018-05-01T08:04:07.868Z,7728.00
2018-05-01T08:05:07.995Z,7176.00
2018-05-01T08:06:07.938Z,7660.00
2018-05-01T08:07:07.973Z,8344.00
2018-05-01T08:08:08.016Z,8348.00
2018-05-01T08:09:08.044Z,8380.00
2018-05-01T08:10:08.077Z,8524.00
2018-05-01T08:11:08.129Z,9120.00
2018-05-01T08:12:08.232Z,9616.00
2018-05-01T08:13:08.186Z,8988.00
2018-05-01T08:14:08.220Z,7912.00
2018-05-01T08:15:08.276Z,8832.00
2018-05-01T08:16:08.291Z,8764.00
2018-05-01T08:17:08.326Z,7744.00
2018-05-01T08:18:08.370Z,8156.00
2018-05-01T08:19:08.405Z,8832.00
2018-05-01T08:20:08.440Z,8356.00
2018-05-01T08:21:08.472Z,7612.00
2018-05-01T08:22:08.504Z,7616.00
2018-05-01T08:23:08.539Z,8488.00
2018-05-01T08:24:08.740Z,8688.00
2018-05-01T08:25:08.611Z,7980.00
2018-05-01T08:26:08.665Z,8116.00
2018-05-01T08:27:08.680Z,9396.00
2018-05-01T08:28:08.716Z,9072.00
2018-05-01T08:29:08.757Z,8888.00
2018-05-01T08:30:08.786Z,8964.00
2018-05-01T08:31:08.824Z,9292.00
2018-05-01T08:32:08.858Z,9556.00
2018-05-01T08:33:08.908Z,8684.00
2018-05-01T08:34:08.927Z,7288.00
2018-05-01T08:35:08.966Z,6296.00
2018-05-01T08:36:09.000Z,6300.00
2018-05-01T08:37:09.035Z,6516.00
2018-05-01T08:38:09.078Z,6036.00
2018-05-01T08:39:09.107Z,5840.00
2018-05-01T08:40:09.147Z,5552.00
2018-05-01T08:41:09.399Z,5592.00
2018-05-01T08:42:09.213Z,5660.00
2018-05-01T08:43:09.248Z,5952.00
2018-05-01T08:44:09.289Z,6484.00
2018-05-01T08:45:09.321Z,6748.00
2018-05-01T08:46:09.358Z,7516.00
2018-05-01T08:47:09.387Z,8228.00
2018-05-01T08:48:09.434Z,8944.00
2018-05-01T08:49:09.522Z,9452.00
2018-05-01T08:50:09.492Z,9260.00
2018-05-01T08:51:09.528Z,9244.00
2018-05-01T08:52:09.586Z,10084.00
2018-05-01T08:53:09.597Z,11784.00
2018-05-01T08:54:09.635Z,12264.00
2018-05-01T08:55:09.680Z,11740.00
2018-05-01T08:56:09.911Z,8840.00
2018-05-01T08:57:09.814Z,7524.00
2018-05-01T08:58:09.776Z,7872.00
2018-05-01T08:59:10.022Z,7716.00
2018-05-01T09:00:09.898Z,7736.00
2018-05-01T09:01:09.888Z,8476.00
2018-05-01T09:02:09.914Z,10304.00
2018-05-01T09:03:09.951Z,15464.00
2018-05-01T09:04:10.004Z,17856.00
2018-05-01T09:05:10.029Z,15400.00
2018-05-01T09:06:10.135Z,13120.00
2018-05-01T09:07:10.090Z,12748.00
2018-05-01T09:08:10.239Z,11080.00
2018-05-01T09:09:10.365Z,10944.00
2018-05-01T09:10:10.195Z,12592.00
2018-05-01T09:11:10.238Z,13332.00
2018-05-01T09:12:10.294Z,12464.00
2018-05-01T09:13:10.302Z,9936.00
2018-05-01T09:14:10.351Z,9604.00
2018-05-01T09:15:10.386Z,10984.00
2018-05-01T09:16:10.410Z,10624.00
2018-05-01T09:17:10.486Z,9788.00
2018-05-01T09:18:10.505Z,9032.00
2018-05-01T09:19:10.516Z,7524.00
2018-05-01T09:20:10.554Z,7032.00
2018-05-01T09:21:10.584Z,7352.00
2018-05-01T09:22:10.627Z,7560.00
2018-05-01T09:23:10.660Z,8156.00
2018-05-01T09:24:10.707Z,9244.00
2018-05-01T09:25:10.730Z,9988.00
2018-05-01T09:26:10.765Z,13156.00
2018-05-01T09:27:10.799Z,14412.00
2018-05-01T09:28:10.833Z,14944.00
2018-05-01T09:29:10.872Z,13060.00
2018-05-01T09:30:10.907Z,12932.00
2018-05-01T09:31:10.943Z,15416.00
2018-05-01T09:32:10.978Z,16064.00
2018-05-01T09:33:11.095Z,17184.00
2018-05-01T09:34:11.066Z,18496.00
2018-05-01T09:35:11.524Z,17280.00
2018-05-01T09:36:11.122Z,16992.00
2018-05-01T09:37:11.160Z,17408.00
2018-05-01T09:38:11.193Z,17984.00
2018-05-01T09:39:11.229Z,15612.00
2018-05-01T09:40:11.269Z,15024.00
2018-05-01T09:41:11.302Z,16032.00
2018-05-01T09:42:11.384Z,15432.00
2018-05-01T09:43:11.374Z,14116.00
2018-05-01T09:44:11.694Z,13708.00
2018-05-01T09:45:11.671Z,15280.00
2018-05-01T09:46:11.709Z,17568.00
2018-05-01T09:47:11.574Z,17568.00
2018-05-01T09:48:11.572Z,17536.00
2018-05-01T09:49:11.592Z,16320.00
2018-05-01T09:50:11.633Z,17536.00
2018-05-01T09:51:11.712Z,18432.00
2018-05-01T09:52:11.806Z,17152.00
2018-05-01T09:53:11.785Z,15332.00
2018-05-01T09:54:11.782Z,15000.00
2018-05-01T09:55:11.817Z,16160.00
2018-05-01T09:56:11.855Z,17152.00
2018-05-01T09:57:11.898Z,17632.00
2018-05-01T09:58:11.926Z,16928.00
2018-05-01T09:59:11.971Z,16448.00
2018-05-01T10:00:12.005Z,14968.00
2018-05-01T10:01:12.037Z,13432.00
2018-05-01T10:02:12.498Z,12820.00
2018-05-01T10:03:12.351Z,11836.00
2018-05-01T10:04:12.285Z,11500.00
2018-05-01T10:05:12.205Z,11416.00
2018-05-01T10:06:12.225Z,10692.00
2018-05-01T10:07:12.276Z,11824.00
2018-05-01T10:08:12.309Z,14184.00
2018-05-01T10:09:12.345Z,13168.00
2018-05-01T10:10:12.374Z,12180.00
2018-05-01T10:11:12.415Z,12148.00
2018-05-01T10:12:12.482Z,15080.00
2018-05-01T10:13:12.504Z,16704.00
2018-05-01T10:14:12.530Z,16096.00
2018-05-01T10:15:12.561Z,14080.00
2018-05-01T10:16:12.598Z,11856.00
2018-05-01T10:17:12.638Z,10440.00
2018-05-01T10:18:12.673Z,10764.00
2018-05-01T10:19:12.712Z,11016.00
2018-05-01T10:20:12.924Z,11736.00
2018-05-01T10:21:12.786Z,12068.00
2018-05-01T10:22:12.822Z,12380.00
2018-05-01T10:23:12.861Z,11656.00
2018-05-01T10:24:12.902Z,11400.00
2018-05-01T10:25:12.938Z,11372.00
2018-05-01T10:26:12.983Z,14424.00
2018-05-01T10:27:13.015Z,16032.00
2018-05-01T10:28:13.054Z,14420.00
2018-05-01T10:29:13.085Z,12720.00
2018-05-01T10:30:13.122Z,12956.00
2018-05-01T10:31:13.162Z,13096.00
2018-05-01T10:32:13.249Z,12532.00
2018-05-01T10:33:13.234Z,12080.00
2018-05-01T10:34:13.279Z,12388.00
2018-05-01T10:35:13.314Z,13348.00
2018-05-01T10:36:13.347Z,14060.00
2018-05-01T10:37:13.386Z,13120.00
2018-05-01T10:38:13.424Z,12028.00
2018-05-01T10:39:13.461Z,13108.00
2018-05-01T10:40:13.502Z,14288.00
2018-05-01T10:41:13.535Z,14700.00
2018-05-01T10:42:13.576Z,15680.00
2018-05-01T10:43:13.610Z,16192.00
2018-05-01T10:44:13.653Z,16288.00
2018-05-01T10:45:13.685Z,16544.00
2018-05-01T10:46:13.724Z,16352.00
2018-05-01T10:47:13.768Z,15968.00
2018-05-01T10:48:13.798Z,15428.00
2018-05-01T10:49:13.835Z,15288.00
2018-05-01T10:50:13.875Z,15376.00
2018-05-01T10:51:13.915Z,15936.00
2018-05-01T10:52:13.948Z,16896.00
2018-05-01T10:53:13.987Z,17728.00
2018-05-01T10:54:14.026Z,17952.00
2018-05-01T10:55:14.071Z,18112.00
2018-05-01T10:56:14.099Z,17888.00
2018-05-01T10:57:14.146Z,17312.00
2018-05-01T10:58:14.178Z,16544.00
2018-05-01T10:59:14.223Z,16288.00
2018-05-01T11:00:14.339Z,16192.00
2018-05-01T11:01:14.290Z,14968.00
2018-05-01T11:02:14.328Z,13832.00
2018-05-01T11:03:14.441Z,12568.00
2018-05-01T11:04:14.405Z,11576.00
2018-05-01T11:05:14.442Z,11036.00
2018-05-01T11:06:14.480Z,12056.00
2018-05-01T11:07:14.520Z,13800.00
2018-05-01T11:08:14.561Z,15168.00
2018-05-01T11:09:14.597Z,15012.00
2018-05-01T11:10:14.639Z,13892.00
2018-05-01T11:11:14.674Z,12556.00
2018-05-01T11:12:14.709Z,10896.00
2018-05-01T11:13:14.748Z,10152.00
2018-05-01T11:14:14.793Z,9260.00
2018-05-01T11:15:14.842Z,8512.00
2018-05-01T11:16:14.862Z,8244.00
2018-05-01T11:17:14.909Z,8072.00
2018-05-01T11:18:14.943Z,7852.00
2018-05-01T11:19:14.977Z,7264.00
2018-05-01T11:20:15.020Z,7624.00
2018-05-01T11:21:15.054Z,7564.00
2018-05-01T11:22:15.099Z,7888.00
2018-05-01T11:23:15.131Z,9116.00
2018-05-01T11:24:15.165Z,10960.00
2018-05-01T11:25:15.207Z,12708.00
2018-05-01T11:26:15.263Z,15380.00
2018-05-01T11:27:15.279Z,17056.00
2018-05-01T11:28:15.316Z,17408.00
2018-05-01T11:29:15.354Z,16032.00
2018-05-01T11:30:15.390Z,14184.00
2018-05-01T11:31:15.430Z,12868.00
2018-05-01T11:32:15.468Z,12464.00
2018-05-01T11:33:15.578Z,11688.00
2018-05-01T11:34:15.543Z,10472.00
2018-05-01T11:35:15.581Z,10032.00
2018-05-01T11:36:15.619Z,10844.00
2018-05-01T11:37:15.656Z,9988.00
2018-05-01T11:38:15.697Z,8768.00
2018-05-01T11:39:15.733Z,8280.00
2018-05-01T11:40:15.777Z,7064.00
2018-05-01T11:41:15.808Z,6364.00
2018-05-01T11:42:15.845Z,6184.00
2018-05-01T11:43:15.894Z,6108.00
2018-05-01T11:44:15.920Z,6204.00
2018-05-01T11:45:15.974Z,6916.00
2018-05-01T11:46:15.997Z,7568.00
2018-05-01T11:47:16.043Z,7760.00
2018-05-01T11:48:16.070Z,9012.00
2018-05-01T11:49:16.109Z,9520.00
2018-05-01T11:50:16.145Z,10220.00
2018-05-01T11:51:16.186Z,11308.00
2018-05-01T11:52:16.222Z,12108.00
2018-05-01T11:53:16.257Z,12008.00
2018-05-01T11:54:16.300Z,11168.00
2018-05-01T11:55:16.334Z,9924.00
2018-05-01T11:56:16.382Z,8460.00
2018-05-01T11:57:16.886Z,7100.00
2018-05-01T11:58:16.445Z,6980.00
2018-05-01T11:59:16.488Z,6968.00
2018-05-01T12:00:16.522Z,7312.00
2018-05-01T12:01:16.557Z,8112.00
2018-05-01T12:02:16.641Z,9292.00
2018-05-01T12:03:16.635Z,9296.00
2018-05-01T12:04:16.673Z,9140.00
2018-05-01T12:05:16.708Z,8956.00
2018-05-01T12:06:16.745Z,9128.00
2018-05-01T12:07:16.782Z,10120.00
2018-05-01T12:08:16.818Z,11280.00
2018-05-01T12:09:16.857Z,11208.00
2018-05-01T12:10:16.895Z,9792.00
2018-05-01T12:11:16.932Z,8260.00
2018-05-01T12:12:16.974Z,7328.00
2018-05-01T12:13:17.008Z,7224.00
2018-05-01T12:14:17.045Z,7772.00
2018-05-01T12:15:17.081Z,7968.00
2018-05-01T12:16:17.119Z,8712.00
2018-05-01T12:17:17.162Z,9444.00
2018-05-01T12:18:17.195Z,9744.00
2018-05-01T12:19:17.231Z,9992.00
2018-05-01T12:20:17.276Z,9952.00
2018-05-01T12:21:17.320Z,9960.00
2018-05-01T12:22:17.343Z,10576.00
2018-05-01T12:23:17.380Z,11952.00
2018-05-01T12:24:17.432Z,12052.00